Time;durP1;ratioP1;P1;durP2;ratioP2;P2;SDS_P1;SDS_P2;PMS_P1;PMS_P2;Temp;Humidity;BMP_temperature;BMP_pressure;BME280_temperature;BME280_humidity;BME280_pressure;Samples;Min_cycle;Max_cycle;Signal;HPM_P1;HPM_P2
2022/01/14 00:01:36;;;;;;;17.67;12.15;;;3.90;99.90;;;;;;7390280;19;20305;-87
2022/01/14 00:04:01;;;;;;;14.63;10.50;;;4.00;99.90;;;;;;7392652;19;20312;-81
2022/01/14 00:06:27;;;;;;;15.70;11.07;;;3.90;99.90;;;;;;7390160;19;20322;-86
2022/01/14 00:09:01;;;;;;;15.97;11.60;;;4.00;99.90;;;;;;7392092;19;20320;-88
2022/01/14 00:11:29;;;;;;;15.55;10.95;;;4.00;99.90;;;;;;7387504;19;20324;-80
2022/01/14 00:14:08;;;;;;;15.00;11.50;;;3.90;99.90;;;;;;7389480;19;20296;-85
2022/01/14 00:16:33;;;;;;;13.82;10.55;;;3.90;99.90;;;;;;7290053;19;2020018;-85
2022/01/14 00:18:59;;;;;;;14.13;11.30;;;4.00;99.90;;;;;;7390081;19;20683;-86
2022/01/14 00:21:26;;;;;;;13.60;10.90;;;4.00;99.90;;;;;;7388295;19;21267;-81
2022/01/14 00:24:03;;;;;;;14.57;10.82;;;4.00;99.90;;;;;;7391110;19;20320;-80
2022/01/14 00:32:01;;;;;;;12.85;10.55;;;3.90;99.90;;;;;;7289764;19;2007818;-83
2022/01/14 00:34:27;;;;;;;12.25;10.18;;;4.00;99.90;;;;;;7389131;19;20296;-83
2022/01/14 00:36:52;;;;;;;14.07;11.02;;;4.00;99.90;;;;;;7389672;19;20309;-84
2022/01/14 00:39:18;;;;;;;13.77;11.23;;;4.00;99.90;;;;;;7388819;19;20312;-81
2022/01/14 00:41:44;;;;;;;12.98;10.80;;;3.90;99.90;;;;;;7391016;19;20352;-83
2022/01/14 00:44:13;;;;;;;13.30;11.37;;;4.10;99.90;;;;;;7389476;19;20496;-87
2022/01/14 00:46:40;;;;;;;14.57;10.63;;;4.00;99.90;;;;;;7391569;19;20318;-83
2022/01/14 00:49:06;;;;;;;13.38;11.00;;;4.00;99.90;;;;;;7389093;19;20396;-80
2022/01/14 00:51:31;;;;;;;14.90;11.23;;;3.90;99.90;;;;;;7390385;19;20769;-83
2022/01/14 00:53:57;;;;;;;14.05;10.88;;;3.90;99.90;;;;;;7388692;19;20308;-80
2022/01/14 00:56:31;;;;;;;14.17;10.83;;;3.90;99.90;;;;;;7390927;19;20324;-78
2022/01/14 00:59:16;;;;;;;14.85;11.52;;;3.90;99.90;;;;;;7390761;19;20965;-76
2022/01/14 01:01:48;;;;;;;12.95;10.32;;;3.90;99.90;;;;;;7283856;19;2014850;-82
2022/01/14 01:04:15;;;;;;;12.38;10.75;;;3.90;99.90;;;;;;7388055;19;20327;-78
2022/01/14 01:06:41;;;;;;;13.10;10.80;;;3.90;99.90;;;;;;7390237;19;20313;-76
2022/01/14 01:09:10;;;;;;;14.52;10.40;;;4.00;99.90;;;;;;7389211;19;20313;-78
2022/01/14 01:11:40;;;;;;;12.00;10.25;;;4.00;99.90;;;;;;7387540;19;20742;-81
2022/01/14 01:14:16;;;;;;;12.00;10.35;;;3.90;99.90;;;;;;7388074;19;20308;-81
2022/01/14 01:16:42;;;;;;;14.32;10.75;;;4.00;99.90;;;;;;7392478;19;20343;-79
2022/01/14 01:19:08;;;;;;;14.47;11.27;;;4.00;99.90;;;;;;7390068;19;20340;-80
2022/01/14 01:21:34;;;;;;;14.80;11.23;;;4.00;99.90;;;;;;7381615;19;20801;-84
2022/01/14 01:24:00;;;;;;;15.77;11.70;;;3.90;99.90;;;;;;7386635;19;20340;-78
2022/01/14 01:26:31;;;;;;;15.02;10.80;;;3.90;99.90;;;;;;7390193;19;20320;-82
2022/01/14 01:31:40;;;;;;;13.55;11.18;;;3.90;99.90;;;;;;7388719;19;20344;-82
2022/01/14 01:34:19;;;;;;;14.25;10.85;;;3.90;99.90;;;;;;7387980;19;20913;-84
2022/01/14 01:36:45;;;;;;;12.52;10.77;;;3.90;99.90;;;;;;7388008;19;20340;-83
2022/01/14 01:39:13;;;;;;;14.48;10.80;;;3.90;99.90;;;;;;7388488;19;20376;-84
2022/01/14 01:41:40;;;;;;;16.35;11.77;;;3.90;99.90;;;;;;7373188;19;20753;-81
2022/01/14 01:44:07;;;;;;;14.35;11.45;;;3.90;99.90;;;;;;7386533;19;20411;-81
2022/01/14 01:46:33;;;;;;;13.98;11.55;;;3.90;99.90;;;;;;7389191;19;20329;-81
2022/01/14 01:48:59;;;;;;;16.52;12.07;;;3.90;99.90;;;;;;7388317;19;20328;-86
2022/01/14 01:51:24;;;;;;;20.93;11.73;;;3.90;99.90;;;;;;7386968;19;20313;-80
2022/01/14 01:53:50;;;;;;;14.65;11.48;;;3.90;99.90;;;;;;7388500;19;20352;-77
2022/01/14 01:56:16;;;;;;;15.73;11.53;;;3.90;99.90;;;;;;7388996;19;20331;-80
2022/01/14 01:58:41;;;;;;;13.63;11.80;;;3.90;99.90;;;;;;7386977;19;20362;-82
2022/01/14 02:01:07;;;;;;;13.10;10.98;;;3.80;99.90;;;;;;7387119;19;20336;-75
2022/01/14 02:03:33;;;;;;;15.03;12.10;;;3.90;99.90;;;;;;7387917;19;21386;-79
2022/01/14 02:05:59;;;;;;;14.53;12.20;;;3.80;99.90;;;;;;7387643;19;21019;-79
2022/01/14 02:08:25;;;;;;;17.60;12.63;;;3.80;99.90;;;;;;7389287;19;20300;-77
2022/01/14 02:10:51;;;;;;;12.97;11.20;;;3.80;99.90;;;;;;7385139;19;20356;-78
2022/01/14 02:13:16;;;;;;;14.48;11.70;;;3.80;99.90;;;;;;7382831;19;20332;-79
2022/01/14 02:19:11;;;;;;;15.48;11.50;;;3.80;99.90;;;;;;7280375;19;2009139;-77
2022/01/14 02:26:49;;;;;;;14.90;12.63;;;3.70;99.90;;;;;;7387852;19;20651;-79
2022/01/14 02:29:15;;;;;;;16.73;12.10;;;3.70;99.90;;;;;;7386939;19;20309;-81
2022/01/14 02:31:40;;;;;;;14.77;11.73;;;3.80;99.90;;;;;;7383471;19;20678;-85
2022/01/14 02:34:06;;;;;;;18.75;13.35;;;3.80;99.90;;;;;;7384034;19;20309;-80
2022/01/14 02:36:32;;;;;;;16.10;12.97;;;3.70;99.90;;;;;;7386936;19;20368;-78
2022/01/14 02:38:57;;;;;;;15.83;12.67;;;3.70;99.90;;;;;;7386702;19;20385;-89
2022/01/14 02:41:23;;;;;;;15.32;12.73;;;3.70;99.90;;;;;;7384801;19;20324;-79
2022/01/14 02:43:48;;;;;;;19.13;13.83;;;3.70;99.90;;;;;;7384811;19;20337;-78
2022/01/14 02:46:15;;;;;;;21.00;14.40;;;3.60;99.90;;;;;;7387942;19;20309;-81
2022/01/14 02:48:41;;;;;;;17.97;13.67;;;3.60;99.90;;;;;;7385841;19;20320;-81
2022/01/14 02:51:15;;;;;;;19.33;14.43;;;3.50;99.90;;;;;;7384947;19;20312;-81
2022/01/14 02:53:44;;;;;;;21.85;15.05;;;3.60;99.90;;;;;;7385074;19;21067;-81
2022/01/14 02:56:16;;;;;;;20.50;15.45;;;3.50;99.90;;;;;;7388395;19;21096;-77
2022/01/14 02:58:42;;;;;;;19.55;14.77;;;3.40;99.90;;;;;;7384724;19;20355;-79
2022/01/14 03:01:16;;;;;;;18.15;14.20;;;3.40;99.90;;;;;;7386253;19;20312;-87
2022/01/14 03:03:45;;;;;;;17.92;14.65;;;3.40;99.90;;;;;;7382908;19;20866;-82
2022/01/14 03:06:11;;;;;;;21.77;15.57;;;3.30;99.90;;;;;;7386678;19;20293;-79
2022/01/14 03:08:36;;;;;;;20.70;16.08;;;3.40;99.90;;;;;;7386170;19;20321;-82
2022/01/14 03:11:10;;;;;;;19.93;16.23;;;3.50;99.90;;;;;;7383984;19;20316;-78
2022/01/14 03:13:36;;;;;;;19.00;14.93;;;3.40;99.90;;;;;;7383204;19;20305;-80
2022/01/14 03:16:02;;;;;;;19.67;15.85;;;3.30;99.90;;;;;;7386232;19;21065;-76
2022/01/14 03:18:37;;;;;;;21.67;15.73;;;3.30;99.90;;;;;;7384385;19;20327;-79
2022/01/14 03:21:13;;;;;;;23.38;16.40;;;3.20;99.90;;;;;;7385439;19;20329;-80
2022/01/14 03:23:48;;;;;;;25.88;17.10;;;3.20;99.90;;;;;;7383114;19;20778;-79
2022/01/14 03:26:18;;;;;;;24.58;17.30;;;3.20;99.90;;;;;;7386708;19;20304;-85
2022/01/14 03:28:44;;;;;;;24.88;16.45;;;3.20;99.90;;;;;;7386544;19;20300;-84
2022/01/14 03:31:10;;;;;;;21.75;16.58;;;3.20;99.90;;;;;;7384395;19;20668;-85
2022/01/14 03:33:35;;;;;;;22.17;17.03;;;3.10;99.90;;;;;;7381872;19;20375;-78
2022/01/14 03:36:02;;;;;;;21.83;15.93;;;3.10;99.90;;;;;;7386329;19;20941;-83
2022/01/14 03:38:27;;;;;;;23.55;17.63;;;3.10;99.90;;;;;;7383567;19;20692;-82
2022/01/14 03:40:53;;;;;;;25.58;17.20;;;3.10;99.90;;;;;;7384777;19;20340;-78
2022/01/14 03:43:18;;;;;;;28.93;18.00;;;3.10;99.90;;;;;;7382980;19;20848;-82
2022/01/14 03:45:45;;;;;;;24.25;17.85;;;3.10;99.90;;;;;;7384617;19;20362;-85
2022/01/14 03:48:11;;;;;;;26.13;17.40;;;3.00;99.90;;;;;;7385006;19;20774;-78
2022/01/14 03:50:37;;;;;;;24.90;17.83;;;3.10;99.90;;;;;;7384863;19;20324;-78
2022/01/14 03:53:03;;;;;;;24.85;17.80;;;3.00;99.90;;;;;;7383860;19;20882;-80
2022/01/14 03:55:28;;;;;;;26.05;17.40;;;3.10;99.90;;;;;;7384849;19;20368;-79
2022/01/14 03:57:54;;;;;;;27.90;18.73;;;3.00;99.90;;;;;;7384466;19;20635;-80
2022/01/14 04:00:20;;;;;;;22.15;17.50;;;3.10;99.90;;;;;;7382888;19;20339;-82
2022/01/14 04:02:45;;;;;;;26.33;18.05;;;3.00;99.90;;;;;;7386969;19;20710;-80
2022/01/14 04:05:11;;;;;;;23.42;17.23;;;3.00;99.90;;;;;;7384606;19;20309;-81
2022/01/14 04:07:37;;;;;;;23.87;17.93;;;3.00;99.90;;;;;;7385800;19;20665;-77
2022/01/14 04:10:04;;;;;;;23.88;18.52;;;3.00;99.90;;;;;;7379712;19;20320;-80
2022/01/14 04:12:43;;;;;;;25.48;18.48;;;3.00;99.90;;;;;;7384004;19;20372;-79
2022/01/14 04:17:57;;;;;;;26.35;18.17;;;3.00;99.90;;;;;;7386603;19;21127;-80
2022/01/14 04:20:23;;;;;;;27.25;16.25;;;3.00;99.90;;;;;;7380901;19;20349;-84
2022/01/14 04:22:49;;;;;;;20.63;15.65;;;3.00;99.90;;;;;;7384679;19;20318;-79
2022/01/14 04:25:15;;;;;;;22.60;16.90;;;3.00;99.90;;;;;;7384686;19;20317;-81
2022/01/14 04:27:40;;;;;;;22.02;16.90;;;3.00;99.90;;;;;;7384624;19;20321;-80
2022/01/14 04:30:07;;;;;;;24.20;17.87;;;3.10;99.90;;;;;;7384850;19;20314;-79
2022/01/14 04:32:32;;;;;;;25.45;18.67;;;3.00;99.90;;;;;;7384563;19;20321;-80
2022/01/14 04:34:58;;;;;;;23.43;17.77;;;3.00;99.90;;;;;;7382395;19;20312;-80
2022/01/14 04:37:24;;;;;;;22.75;18.00;;;3.00;99.90;;;;;;7383282;19;20308;-79
2022/01/14 04:39:49;;;;;;;23.60;17.90;;;3.00;99.90;;;;;;7380872;19;20316;-87
2022/01/14 04:42:15;;;;;;;23.58;17.20;;;3.00;99.90;;;;;;7384223;19;20319;-83
2022/01/14 04:44:41;;;;;;;23.23;18.17;;;3.00;99.90;;;;;;7389967;19;20325;-80
2022/01/14 04:47:17;;;;;;;24.63;17.13;;;3.00;99.90;;;;;;7390745;19;20316;-78
2022/01/14 04:49:43;;;;;;;25.02;17.65;;;3.00;99.90;;;;;;7382403;19;20332;-79
2022/01/14 04:52:08;;;;;;;21.27;17.08;;;3.00;99.90;;;;;;7378615;19;20736;-79
2022/01/14 04:54:34;;;;;;;24.50;17.67;;;3.10;99.90;;;;;;7389454;19;20690;-86
2022/01/14 04:57:00;;;;;;;24.73;17.67;;;3.00;99.90;;;;;;7390662;19;20304;-85
2022/01/14 04:59:26;;;;;;;26.73;18.47;;;3.10;99.90;;;;;;7388724;19;20355;-81
2022/01/14 05:01:51;;;;;;;22.97;16.53;;;3.00;99.90;;;;;;7384964;19;21171;-82
2022/01/14 05:04:17;;;;;;;23.25;17.23;;;3.10;99.90;;;;;;7387044;19;20379;-79
2022/01/14 05:06:46;;;;;;;25.67;18.10;;;3.10;99.90;;;;;;7390309;19;20329;-79
2022/01/14 05:09:23;;;;;;;27.45;17.73;;;3.10;99.90;;;;;;7389394;19;20329;-78
2022/01/14 05:11:54;;;;;;;20.52;16.75;;;3.10;99.90;;;;;;7389916;19;20333;-78
2022/01/14 05:14:20;;;;;;;22.70;17.55;;;3.20;99.90;;;;;;7387717;19;20313;-83
2022/01/14 05:16:46;;;;;;;21.52;16.20;;;3.10;99.90;;;;;;7389143;19;20316;-83
2022/01/14 05:19:11;;;;;;;22.35;17.08;;;3.10;99.90;;;;;;7390023;19;20325;-79
2022/01/14 05:21:37;;;;;;;24.10;16.60;;;3.20;99.90;;;;;;7390100;19;20328;-77
2022/01/14 05:24:03;;;;;;;21.10;15.52;;;3.10;99.90;;;;;;7390647;19;20344;-79
2022/01/14 05:26:29;;;;;;;22.60;15.93;;;3.20;99.90;;;;;;7389663;19;20672;-78
2022/01/14 05:28:54;;;;;;;25.57;18.30;;;3.20;99.90;;;;;;7388937;19;21155;-77
2022/01/14 05:31:20;;;;;;;18.13;15.47;;;3.20;99.90;;;;;;7388677;19;20860;-79
2022/01/14 05:33:47;;;;;;;23.95;16.98;;;3.20;99.90;;;;;;7389514;19;20333;-88
2022/01/14 05:36:12;;;;;;;22.55;16.35;;;3.30;99.90;;;;;;7392099;19;20366;-85
2022/01/14 05:38:38;;;;;;;21.92;15.73;;;3.20;99.90;;;;;;7386707;19;20321;-82
2022/01/14 05:41:04;;;;;;;19.73;15.60;;;3.20;99.90;;;;;;7388745;19;20340;-81
2022/01/14 05:43:29;;;;;;;21.43;16.53;;;3.30;99.90;;;;;;7387051;19;20304;-85
2022/01/14 05:45:55;;;;;;;20.80;15.40;;;3.20;99.90;;;;;;7390960;19;20378;-85
2022/01/14 05:48:20;;;;;;;18.47;14.60;;;3.30;99.90;;;;;;7389979;19;20328;-79
2022/01/14 05:50:46;;;;;;;19.60;15.13;;;3.40;99.90;;;;;;7389780;19;20347;-81
2022/01/14 05:53:12;;;;;;;20.13;14.70;;;3.30;99.90;;;;;;7388610;19;20395;-81
2022/01/14 05:55:37;;;;;;;22.43;15.53;;;3.30;99.90;;;;;;7389268;19;20332;-81
2022/01/14 05:58:03;;;;;;;18.45;14.35;;;3.30;99.90;;;;;;7390187;19;20328;-80
2022/01/14 06:00:29;;;;;;;22.20;15.57;;;3.30;99.90;;;;;;7386546;19;20423;-82
2022/01/14 06:02:54;;;;;;;22.13;14.75;;;3.30;99.90;;;;;;7388218;19;20352;-83
2022/01/14 06:05:20;;;;;;;20.47;14.97;;;3.30;99.90;;;;;;7388849;19;21146;-80
2022/01/14 06:07:46;;;;;;;20.85;15.30;;;3.30;99.90;;;;;;7390670;19;20344;-83
2022/01/14 06:10:11;;;;;;;18.33;14.85;;;3.30;99.90;;;;;;7387834;19;20655;-78
2022/01/14 06:12:37;;;;;;;20.07;14.97;;;3.30;99.90;;;;;;7386376;19;20396;-86
2022/01/14 06:15:04;;;;;;;24.15;14.93;;;3.20;99.90;;;;;;7387568;19;20420;-78
2022/01/14 06:17:29;;;;;;;17.57;14.63;;;3.30;99.90;;;;;;7388743;19;20320;-81
2022/01/14 06:19:55;;;;;;;20.20;15.53;;;3.30;99.90;;;;;;7389758;19;20334;-81
2022/01/14 06:22:21;;;;;;;18.13;14.10;;;3.30;99.90;;;;;;7387898;19;20414;-80
2022/01/14 06:24:47;;;;;;;18.88;15.02;;;3.30;99.90;;;;;;7390332;19;20388;-91
2022/01/14 06:27:12;;;;;;;18.97;14.50;;;3.30;99.90;;;;;;7403943;19;20737;-82
2022/01/14 06:29:38;;;;;;;20.75;14.93;;;3.30;99.90;;;;;;7399262;19;20316;-89
2022/01/14 06:32:04;;;;;;;19.40;14.65;;;3.30;99.90;;;;;;7401895;19;20313;-91
2022/01/14 06:34:30;;;;;;;19.35;14.57;;;3.20;99.90;;;;;;7399862;19;20360;-83
2022/01/14 06:36:55;;;;;;;20.17;14.97;;;3.20;99.90;;;;;;7396966;19;20320;-85
2022/01/14 06:39:21;;;;;;;17.17;14.35;;;3.30;99.90;;;;;;7396337;19;20854;-84
2022/01/14 06:41:47;;;;;;;23.02;14.23;;;3.30;99.90;;;;;;7396268;19;20304;-86
2022/01/14 06:44:13;;;;;;;19.20;14.20;;;3.30;99.90;;;;;;7397463;19;20308;-88
2022/01/14 06:46:39;;;;;;;18.30;14.50;;;3.30;99.90;;;;;;7395876;19;20771;-88
2022/01/14 06:49:05;;;;;;;17.20;13.85;;;3.30;99.90;;;;;;7395908;19;20551;-85
2022/01/14 06:51:30;;;;;;;21.35;14.95;;;3.40;99.90;;;;;;7396056;19;20289;-89
2022/01/14 06:53:56;;;;;;;19.23;14.33;;;3.30;99.90;;;;;;7394636;19;20328;-91
2022/01/14 06:56:22;;;;;;;18.93;14.77;;;3.40;99.90;;;;;;7398326;19;20324;-93
2022/01/14 06:58:47;;;;;;;19.55;14.18;;;3.40;99.90;;;;;;7397619;19;20317;-86
2022/01/14 07:01:13;;;;;;;18.87;14.03;;;3.40;99.90;;;;;;7380584;19;20337;-86
2022/01/14 07:03:39;;;;;;;18.30;15.15;;;3.40;99.90;;;;;;7391275;19;20410;-87
2022/01/14 07:06:04;;;;;;;19.85;14.85;;;3.40;99.90;;;;;;7395710;19;20617;-81
2022/01/14 07:08:30;;;;;;;18.40;13.37;;;3.50;99.90;;;;;;7390372;19;20929;-80
2022/01/14 07:10:56;;;;;;;17.95;13.45;;;3.60;99.90;;;;;;7391053;19;20725;-81
2022/01/14 07:13:21;;;;;;;17.95;14.20;;;3.50;99.90;;;;;;7389860;19;20316;-85
2022/01/14 07:15:47;;;;;;;21.90;14.43;;;3.50;99.90;;;;;;7389068;19;20367;-83
2022/01/14 07:18:13;;;;;;;20.08;14.77;;;3.50;99.90;;;;;;7388498;19;20317;-82
2022/01/14 07:20:39;;;;;;;19.77;13.68;;;3.50;99.90;;;;;;7386541;19;20344;-86
2022/01/14 07:23:08;;;;;;;17.17;13.13;;;3.50;99.90;;;;;;7367969;19;20313;-91
2022/01/14 07:25:43;;;;;;;20.45;13.73;;;3.60;99.90;;;;;;7299610;19;2019950;-88
2022/01/14 07:28:09;;;;;;;20.80;14.43;;;3.60;99.90;;;;;;7307906;19;2005086;-87
2022/01/14 07:30:35;;;;;;;17.98;13.65;;;3.60;99.90;;;;;;7406916;19;20337;-88
2022/01/14 07:33:01;;;;;;;19.07;14.00;;;3.60;99.90;;;;;;7401133;19;20355;-87
2022/01/14 07:35:27;;;;;;;19.90;13.57;;;3.60;99.90;;;;;;7403533;19;20334;-84
2022/01/14 07:37:53;;;;;;;16.33;12.50;;;3.60;99.90;;;;;;7402544;19;20339;-84
2022/01/14 07:40:19;;;;;;;18.30;13.13;;;3.60;99.90;;;;;;7400124;19;20432;-85
2022/01/14 07:42:44;;;;;;;19.93;13.57;;;3.60;99.90;;;;;;7397998;19;20328;-87
2022/01/14 07:45:10;;;;;;;17.65;13.98;;;3.60;99.90;;;;;;7400153;19;20309;-88
2022/01/14 07:47:36;;;;;;;17.65;13.45;;;3.70;99.90;;;;;;7398723;19;20710;-85
2022/01/14 07:50:02;;;;;;;17.73;13.07;;;3.70;99.90;;;;;;7396634;19;20907;-89
2022/01/14 07:52:28;;;;;;;21.10;14.10;;;3.70;99.90;;;;;;7390965;19;20776;-85
2022/01/14 07:54:53;;;;;;;20.52;14.25;;;3.70;99.90;;;;;;7388991;19;20714;-84
2022/01/14 07:57:19;;;;;;;21.37;13.33;;;3.60;99.90;;;;;;7386484;19;20702;-82
2022/01/14 07:59:45;;;;;;;21.17;14.57;;;3.60;99.90;;;;;;7388442;19;20343;-84
2022/01/14 08:02:12;;;;;;;18.45;13.90;;;3.60;99.90;;;;;;7386017;19;20794;-92
2022/01/14 08:04:38;;;;;;;17.17;14.48;;;3.60;99.90;;;;;;7397724;19;20319;-90
2022/01/14 08:07:10;;;;;;;19.80;13.90;;;3.60;99.90;;;;;;7399641;19;20323;-87
2022/01/14 08:09:40;;;;;;;18.45;14.27;;;3.70;99.90;;;;;;7396943;19;20309;-88
2022/01/14 08:12:07;;;;;;;19.75;14.70;;;3.60;99.90;;;;;;7398441;19;20357;-86
2022/01/14 08:14:32;;;;;;;23.57;14.47;;;3.60;99.90;;;;;;7392597;19;20321;-85
2022/01/14 08:16:58;;;;;;;20.40;14.37;;;3.60;99.90;;;;;;7400968;19;20293;-89
2022/01/14 08:19:25;;;;;;;18.73;14.38;;;3.60;99.90;;;;;;7402516;19;20340;-89
2022/01/14 08:21:51;;;;;;;20.63;14.63;;;3.60;99.90;;;;;;7409191;19;20316;-89
2022/01/14 08:24:16;;;;;;;19.48;14.25;;;3.60;99.90;;;;;;7422660;19;20352;-92
2022/01/14 08:26:42;;;;;;;20.50;15.23;;;3.60;99.90;;;;;;7422651;19;20306;-85
2022/01/14 08:29:08;;;;;;;20.92;15.27;;;3.60;99.90;;;;;;7421683;19;20347;-86
2022/01/14 08:31:33;;;;;;;18.47;14.43;;;3.50;99.90;;;;;;7421030;19;20325;-88
2022/01/14 08:34:00;;;;;;;19.88;14.27;;;3.60;99.90;;;;;;7421758;19;20340;-85
2022/01/14 08:36:30;;;;;;;20.40;14.85;;;3.60;99.90;;;;;;7423502;19;20336;-87
2022/01/14 08:38:56;;;;;;;19.92;14.63;;;3.60;99.90;;;;;;7424353;19;20337;-87
2022/01/14 08:41:23;;;;;;;25.07;15.10;;;3.50;99.90;;;;;;7422048;19;20354;-87
2022/01/14 08:43:49;;;;;;;19.67;15.40;;;3.50;99.90;;;;;;7421660;19;20324;-87
2022/01/14 08:46:14;;;;;;;20.13;15.27;;;3.60;99.90;;;;;;7422007;19;20344;-87
2022/01/14 08:48:40;;;;;;;19.88;15.23;;;3.60;99.90;;;;;;7422333;19;20337;-87
2022/01/14 08:51:06;;;;;;;17.93;14.63;;;3.60;99.90;;;;;;7422909;19;20313;-91
2022/01/14 08:53:32;;;;;;;22.90;16.10;;;3.60;99.90;;;;;;7419747;19;20348;-88
2022/01/14 08:55:58;;;;;;;19.77;15.23;;;3.50;99.90;;;;;;7420460;19;20336;-90
2022/01/14 08:58:23;;;;;;;23.50;15.93;;;3.70;99.90;;;;;;7412531;19;20320;-87
2022/01/14 09:00:49;;;;;;;24.35;15.43;;;3.60;99.90;;;;;;7410506;19;20348;-87
2022/01/14 09:03:15;;;;;;;21.50;15.85;;;3.60;99.90;;;;;;7413243;19;20300;-86
2022/01/14 09:05:41;;;;;;;20.00;15.52;;;3.60;99.90;;;;;;7410474;19;20352;-87
2022/01/14 09:08:07;;;;;;;21.67;16.10;;;3.60;99.90;;;;;;7396990;19;20320;-90
2022/01/14 09:10:32;;;;;;;23.75;15.65;;;3.60;99.90;;;;;;7417613;19;20296;-93
2022/01/14 09:12:58;;;;;;;21.03;15.53;;;3.60;99.90;;;;;;7414858;19;20345;-91
2022/01/14 09:15:24;;;;;;;19.30;15.07;;;3.60;99.90;;;;;;7411231;19;20304;-89
2022/01/14 09:17:49;;;;;;;23.33;16.13;;;3.60;99.90;;;;;;7407101;19;20874;-91
2022/01/14 09:20:15;;;;;;;19.73;14.70;;;3.60;99.90;;;;;;7413598;19;20300;-84
2022/01/14 09:22:47;;;;;;;19.60;15.90;;;3.60;99.90;;;;;;7411384;19;20342;-91
2022/01/14 09:25:13;;;;;;;21.30;14.93;;;3.60;99.90;;;;;;7311521;19;2004627;-90
2022/01/14 09:27:38;;;;;;;19.50;14.93;;;3.60;99.90;;;;;;7399962;19;20411;-92
2022/01/14 09:30:05;;;;;;;19.67;14.97;;;3.70;99.90;;;;;;7379980;19;20305;-85
2022/01/14 09:32:31;;;;;;;23.27;15.00;;;3.70;99.90;;;;;;7408484;19;20339;-93
2022/01/14 09:34:56;;;;;;;16.83;13.80;;;3.70;99.90;;;;;;7412447;19;20328;-91
2022/01/14 09:37:22;;;;;;;20.27;15.27;;;3.70;99.90;;;;;;7409767;19;20292;-93
2022/01/14 09:39:48;;;;;;;19.80;14.70;;;3.70;99.90;;;;;;7413025;19;20696;-89
2022/01/14 09:42:13;;;;;;;20.17;13.90;;;3.80;99.90;;;;;;7410468;19;20320;-88
2022/01/14 09:44:42;;;;;;;22.00;15.07;;;3.70;99.90;;;;;;7421220;19;20373;-89
2022/01/14 09:47:08;;;;;;;21.95;15.77;;;3.80;99.90;;;;;;7416172;19;20332;-89
2022/01/14 09:49:34;;;;;;;21.35;15.52;;;3.80;99.90;;;;;;7415424;19;20323;-85
2022/01/14 09:52:00;;;;;;;21.77;15.40;;;3.80;99.90;;;;;;7405717;19;20320;-88
2022/01/14 09:54:26;;;;;;;20.83;14.63;;;3.80;99.90;;;;;;7406966;19;20347;-83
2022/01/14 09:56:51;;;;;;;20.00;14.13;;;3.80;99.90;;;;;;7408262;19;20368;-85
2022/01/14 09:59:18;;;;;;;16.77;13.33;;;3.90;99.90;;;;;;7405579;19;20304;-92
2022/01/14 10:01:45;;;;;;;19.47;14.07;;;3.90;99.90;;;;;;7404046;19;20855;-90
2022/01/14 10:04:21;;;;;;;15.47;13.13;;;3.90;99.90;;;;;;7402381;19;20329;-94
2022/01/14 10:06:50;;;;;;;21.00;14.50;;;3.90;99.90;;;;;;7405746;19;20312;-91
2022/01/14 10:09:31;;;;;;;20.02;14.18;;;3.90;99.90;;;;;;7402078;19;20374;-87
2022/01/14 10:12:13;;;;;;;16.25;12.32;;;3.90;99.90;;;;;;7306552;19;2004381;-91
2022/01/14 10:14:40;;;;;;;16.85;13.35;;;3.90;99.90;;;;;;7297931;19;2004424;-92
2022/01/14 10:17:08;;;;;;;19.90;13.75;;;4.00;99.90;;;;;;7397907;19;20322;-89
2022/01/14 10:19:44;;;;;;;20.53;13.73;;;3.90;99.90;;;;;;7397961;19;20316;-88
2022/01/14 10:22:29;;;;;;;18.52;14.20;;;4.00;99.90;;;;;;7398373;19;20325;-89
2022/01/14 10:25:07;;;;;;;19.17;13.02;;;4.00;99.90;;;;;;7403164;19;20356;-84
2022/01/14 10:27:40;;;;;;;19.65;13.48;;;4.00;99.90;;;;;;7399593;19;20326;-84
2022/01/14 10:30:14;;;;;;;17.48;13.55;;;4.00;99.90;;;;;;7397427;19;20340;-89
2022/01/14 10:32:42;;;;;;;19.27;13.52;;;4.00;99.90;;;;;;7417839;19;20329;-88
2022/01/14 10:35:15;;;;;;;19.00;13.03;;;4.00;99.90;;;;;;7415680;19;20297;-86
2022/01/14 10:37:41;;;;;;;15.55;13.10;;;4.10;99.90;;;;;;7316972;19;2004409;-85
2022/01/14 10:40:18;;;;;;;17.88;12.75;;;4.10;99.90;;;;;;7418297;19;20312;-86
2022/01/14 10:42:45;;;;;;;17.60;13.05;;;4.10;99.90;;;;;;7416602;19;20309;-79
2022/01/14 10:45:20;;;;;;;20.00;13.57;;;4.10;99.90;;;;;;7421060;19;20305;-90
2022/01/14 10:48:03;;;;;;;17.50;13.68;;;4.10;99.90;;;;;;7419144;19;20328;-89
2022/01/14 10:50:41;;;;;;;17.92;13.75;;;4.10;99.90;;;;;;7412345;19;20364;-86
2022/01/14 10:53:18;;;;;;;21.33;13.93;;;4.20;99.90;;;;;;7419010;19;20305;-81
2022/01/14 10:55:46;;;;;;;19.53;14.07;;;4.20;99.90;;;;;;7419162;19;20301;-89
2022/01/14 10:58:28;;;;;;;17.15;13.88;;;4.20;99.90;;;;;;7385679;19;20891;-88
2022/01/14 11:01:15;;;;;;;17.00;12.88;;;4.20;99.90;;;;;;7311273;19;2019872;-85
2022/01/14 11:03:48;;;;;;;20.10;14.98;;;4.20;99.90;;;;;;7420370;19;20325;-89
2022/01/14 11:06:32;;;;;;;16.95;13.20;;;4.20;99.90;;;;;;7411296;19;20340;-91
2022/01/14 11:09:05;;;;;;;19.20;13.75;;;4.20;99.90;;;;;;7413735;19;20325;-84
2022/01/14 11:11:35;;;;;;;21.75;13.60;;;4.30;99.90;;;;;;7420263;19;20340;-86
2022/01/14 11:14:04;;;;;;;17.98;13.85;;;4.40;99.90;;;;;;7421199;19;20334;-86
2022/01/14 11:16:30;;;;;;;18.55;13.35;;;4.20;99.90;;;;;;7412400;19;20890;-89
2022/01/14 11:18:58;;;;;;;20.17;14.82;;;4.30;99.90;;;;;;7393742;19;20330;-89
2022/01/14 11:24:15;;;;;;;17.25;14.00;;;4.30;99.90;;;;;;7394407;19;20866;-92
2022/01/14 11:26:40;;;;;;;18.05;13.30;;;4.30;99.90;;;;;;7373863;19;20304;-87
2022/01/14 11:29:15;;;;;;;21.02;14.23;;;4.30;99.90;;;;;;7399374;19;20305;-93
2022/01/14 11:31:45;;;;;;;17.45;13.23;;;4.40;99.90;;;;;;7294790;19;2024452;-91
2022/01/14 11:34:31;;;;;;;19.73;13.80;;;4.30;99.90;;;;;;7410737;19;20355;-93
2022/01/14 11:36:58;;;;;;;17.98;14.55;;;4.40;99.90;;;;;;7409637;19;20564;-88
2022/01/14 11:39:26;;;;;;;19.48;13.38;;;4.40;99.90;;;;;;7408128;19;20336;-81
2022/01/14 11:41:56;;;;;;;16.92;12.70;;;4.50;99.90;;;;;;7402692;19;20955;-81
2022/01/14 11:45:05;;;;;;;18.67;13.30;;;4.50;99.90;;;;;;7397860;19;20299;-82
2022/01/14 11:47:38;;;;;;;15.63;12.60;;;4.50;99.90;;;;;;7195886;19;2006364;-84
2022/01/14 11:50:05;;;;;;;17.15;12.30;;;4.60;99.90;;;;;;7395779;19;20348;-81
2022/01/14 11:52:37;;;;;;;17.10;12.68;;;4.60;99.90;;;;;;7396144;19;20324;-86
2022/01/14 11:55:04;;;;;;;18.13;12.43;;;4.60;99.90;;;;;;7390711;19;20319;-82
2022/01/14 11:57:45;;;;;;;17.83;12.80;;;4.70;99.90;;;;;;7398954;19;20326;-81
2022/01/14 12:00:59;;;;;;;15.38;12.05;;;4.70;99.90;;;;;;7298536;19;2004464;-79
2022/01/14 12:03:20;;;;;;;15.90;11.07;;;4.70;99.90;;;;;;7198083;19;2004364;-88
2022/01/14 12:05:53;;;;;;;15.30;11.82;;;4.70;99.90;;;;;;7389830;19;20357;-87
2022/01/14 12:08:24;;;;;;;14.10;11.32;;;4.70;99.90;;;;;;7387233;19;20344;-83
2022/01/14 12:11:06;;;;;;;16.63;11.32;;;4.70;99.90;;;;;;7400603;19;20344;-87
2022/01/14 12:13:40;;;;;;;12.77;10.80;;;4.70;99.90;;;;;;7383730;19;20364;-93
2022/01/14 12:16:09;;;;;;;16.23;11.27;;;4.80;99.90;;;;;;7381171;19;20336;-86
2022/01/14 12:18:56;;;;;;;13.27;11.40;;;4.80;99.90;;;;;;7404069;19;20369;-87
2022/01/14 12:21:43;;;;;;;14.40;11.00;;;4.80;99.90;;;;;;7407072;19;20862;-89
2022/01/14 12:24:15;;;;;;;12.57;10.85;;;4.80;99.90;;;;;;7413275;19;20324;-89
2022/01/14 12:27:01;;;;;;;13.70;10.52;;;4.90;99.90;;;;;;7406894;19;20337;-88
2022/01/14 12:29:36;;;;;;;12.20;10.53;;;4.90;99.90;;;;;;7411028;19;20364;-90
2022/01/14 12:32:13;;;;;;;14.48;9.77;;;4.90;99.90;;;;;;7389507;19;20337;-89
2022/01/14 12:34:48;;;;;;;13.32;9.73;;;4.90;99.90;;;;;;7408016;19;20320;-86
2022/01/14 12:37:28;;;;;;;14.85;10.73;;;4.90;99.90;;;;;;7406572;19;20351;-86
2022/01/14 12:39:54;;;;;;;12.43;9.95;;;4.90;99.90;;;;;;7412419;19;20344;-87
2022/01/14 12:42:20;;;;;;;12.85;9.98;;;4.90;99.90;;;;;;7410378;19;20312;-88
2022/01/14 12:44:47;;;;;;;13.53;9.93;;;4.90;99.90;;;;;;7405679;19;20324;-90
2022/01/14 12:47:19;;;;;;;14.35;10.30;;;4.90;99.90;;;;;;7410233;19;20353;-86
2022/01/14 12:49:45;;;;;;;16.03;10.83;;;4.80;99.90;;;;;;7406977;19;20332;-89
2022/01/14 12:52:16;;;;;;;13.10;9.47;;;4.80;99.90;;;;;;7410760;19;20325;-90
2022/01/14 12:54:46;;;;;;;15.93;10.45;;;4.80;99.90;;;;;;7411960;19;20352;-86
2022/01/14 12:57:18;;;;;;;17.02;11.88;;;4.80;99.90;;;;;;7410676;19;20327;-90
2022/01/14 12:59:45;;;;;;;17.60;12.43;;;4.80;99.90;;;;;;7407580;19;20317;-92
2022/01/14 13:02:29;;;;;;;12.80;10.68;;;4.80;99.90;;;;;;7386252;19;20312;-88
2022/01/14 13:05:24;;;;;;;15.70;10.40;;;4.90;99.90;;;;;;7300255;19;2005979;-86